sensor_id;sensor_type;location;lat;lon;timestamp;temperature;humidity
80676;SHT30;70041;46.088;18.268;2023-05-14T00:01:07;12.91;88.16
80676;SHT30;70041;46.088;18.268;2023-05-14T00:03:32;12.92;88.56
80676;SHT30;70041;46.088;18.268;2023-05-14T00:05:58;12.89;87.83
80676;SHT30;70041;46.088;18.268;2023-05-14T00:08:23;12.84;88.08
80676;SHT30;70041;46.088;18.268;2023-05-14T00:10:49;12.84;87.90
80676;SHT30;70041;46.088;18.268;2023-05-14T00:13:15;12.85;88.50
80676;SHT30;70041;46.088;18.268;2023-05-14T00:15:40;12.82;87.93
80676;SHT30;70041;46.088;18.268;2023-05-14T00:18:05;12.86;88.27
80676;SHT30;70041;46.088;18.268;2023-05-14T00:20:31;12.85;88.33
80676;SHT30;70041;46.088;18.268;2023-05-14T00:22:56;12.79;87.92
80676;SHT30;70041;46.088;18.268;2023-05-14T00:25:22;12.74;88.38
80676;SHT30;70041;46.088;18.268;2023-05-14T00:27:47;12.74;88.92
80676;SHT30;70041;46.088;18.268;2023-05-14T00:30:13;12.68;88.81
80676;SHT30;70041;46.088;18.268;2023-05-14T00:32:38;12.74;88.33
80676;SHT30;70041;46.088;18.268;2023-05-14T00:35:04;12.71;88.60
80676;SHT30;70041;46.088;18.268;2023-05-14T00:37:30;12.79;88.08
80676;SHT30;70041;46.088;18.268;2023-05-14T00:39:55;12.74;88.07
80676;SHT30;70041;46.088;18.268;2023-05-14T00:42:21;12.82;88.09
80676;SHT30;70041;46.088;18.268;2023-05-14T00:44:46;12.78;87.90
80676;SHT30;70041;46.088;18.268;2023-05-14T00:47:11;12.69;87.61
80676;SHT30;70041;46.088;18.268;2023-05-14T00:49:37;12.62;89.08
80676;SHT30;70041;46.088;18.268;2023-05-14T00:52:05;12.67;88.93
80676;SHT30;70041;46.088;18.268;2023-05-14T00:54:30;12.69;89.07
80676;SHT30;70041;46.088;18.268;2023-05-14T00:56:56;12.69;88.00
80676;SHT30;70041;46.088;18.268;2023-05-14T00:59:22;12.61;89.11
80676;SHT30;70041;46.088;18.268;2023-05-14T01:01:47;12.64;88.68
80676;SHT30;70041;46.088;18.268;2023-05-14T01:04:13;12.64;88.97
80676;SHT30;70041;46.088;18.268;2023-05-14T01:10:14;12.68;88.20
80676;SHT30;70041;46.088;18.268;2023-05-14T01:13:07;12.72;88.71
80676;SHT30;70041;46.088;18.268;2023-05-14T01:15:35;12.74;88.18
80676;SHT30;70041;46.088;18.268;2023-05-14T01:18:07;12.72;87.77
80676;SHT30;70041;46.088;18.268;2023-05-14T01:20:33;12.74;88.04
80676;SHT30;70041;46.088;18.268;2023-05-14T01:22:59;12.74;87.37
80676;SHT30;70041;46.088;18.268;2023-05-14T01:25:26;12.78;87.67
80676;SHT30;70041;46.088;18.268;2023-05-14T01:33:28;12.79;88.01
80676;SHT30;70041;46.088;18.268;2023-05-14T01:35:54;12.72;88.24
80676;SHT30;70041;46.088;18.268;2023-05-14T01:38:20;12.74;88.11
80676;SHT30;70041;46.088;18.268;2023-05-14T01:40:48;12.78;88.27
80676;SHT30;70041;46.088;18.268;2023-05-14T01:43:14;12.75;88.44
80676;SHT30;70041;46.088;18.268;2023-05-14T01:45:40;12.74;87.83
80676;SHT30;70041;46.088;18.268;2023-05-14T01:48:06;12.72;88.00
80676;SHT30;70041;46.088;18.268;2023-05-14T01:50:31;12.81;87.66
80676;SHT30;70041;46.088;18.268;2023-05-14T01:52:57;12.82;87.69
80676;SHT30;70041;46.088;18.268;2023-05-14T01:55:23;12.78;88.44
80676;SHT30;70041;46.088;18.268;2023-05-14T01:57:49;12.78;88.25
80676;SHT30;70041;46.088;18.268;2023-05-14T02:00:15;12.78;88.17
80676;SHT30;70041;46.088;18.268;2023-05-14T02:02:41;12.69;87.78
80676;SHT30;70041;46.088;18.268;2023-05-14T02:05:07;12.67;88.43
80676;SHT30;70041;46.088;18.268;2023-05-14T02:07:32;12.67;88.63
80676;SHT30;70041;46.088;18.268;2023-05-14T02:09:58;12.74;87.78
80676;SHT30;70041;46.088;18.268;2023-05-14T02:12:23;12.72;88.21
80676;SHT30;70041;46.088;18.268;2023-05-14T02:14:48;12.74;87.70
80676;SHT30;70041;46.088;18.268;2023-05-14T02:17:14;12.78;87.41
80676;SHT30;70041;46.088;18.268;2023-05-14T02:19:42;12.75;88.03
80676;SHT30;70041;46.088;18.268;2023-05-14T02:22:07;12.78;87.09
80676;SHT30;70041;46.088;18.268;2023-05-14T02:24:33;12.79;87.04
80676;SHT30;70041;46.088;18.268;2023-05-14T02:26:58;12.69;87.87
80676;SHT30;70041;46.088;18.268;2023-05-14T02:29:25;12.68;87.79
80676;SHT30;70041;46.088;18.268;2023-05-14T02:31:50;12.74;87.73
80676;SHT30;70041;46.088;18.268;2023-05-14T02:34:16;12.65;87.69
80676;SHT30;70041;46.088;18.268;2023-05-14T02:36:41;12.65;88.28
80676;SHT30;70041;46.088;18.268;2023-05-14T02:39:07;12.64;88.13
80676;SHT30;70041;46.088;18.268;2023-05-14T02:41:32;12.61;88.97
80676;SHT30;70041;46.088;18.268;2023-05-14T02:43:58;12.67;88.42
80676;SHT30;70041;46.088;18.268;2023-05-14T02:46:23;12.65;88.78
80676;SHT30;70041;46.088;18.268;2023-05-14T02:48:49;12.69;88.31
80676;SHT30;70041;46.088;18.268;2023-05-14T02:51:14;12.67;87.95
80676;SHT30;70041;46.088;18.268;2023-05-14T02:53:40;12.67;88.83
80676;SHT30;70041;46.088;18.268;2023-05-14T02:56:06;12.68;88.36
80676;SHT30;70041;46.088;18.268;2023-05-14T02:58:32;12.62;88.26
80676;SHT30;70041;46.088;18.268;2023-05-14T03:00:58;12.62;88.60
80676;SHT30;70041;46.088;18.268;2023-05-14T03:03:23;12.52;88.81
80676;SHT30;70041;46.088;18.268;2023-05-14T03:05:49;12.55;88.35
80676;SHT30;70041;46.088;18.268;2023-05-14T03:08:14;12.54;88.34
80676;SHT30;70041;46.088;18.268;2023-05-14T03:10:40;12.57;87.92
80676;SHT30;70041;46.088;18.268;2023-05-14T03:13:05;12.55;88.34
80676;SHT30;70041;46.088;18.268;2023-05-14T03:15:31;12.58;88.44
80676;SHT30;70041;46.088;18.268;2023-05-14T03:17:56;12.57;88.42
80676;SHT30;70041;46.088;18.268;2023-05-14T03:20:23;12.57;88.53
80676;SHT30;70041;46.088;18.268;2023-05-14T03:22:49;12.55;88.31
80676;SHT30;70041;46.088;18.268;2023-05-14T03:25:14;12.48;88.16
80676;SHT30;70041;46.088;18.268;2023-05-14T03:27:40;12.48;88.38
80676;SHT30;70041;46.088;18.268;2023-05-14T03:30:05;12.48;88.83
80676;SHT30;70041;46.088;18.268;2023-05-14T03:32:31;12.45;88.85
80676;SHT30;70041;46.088;18.268;2023-05-14T03:34:56;12.51;88.52
80676;SHT30;70041;46.088;18.268;2023-05-14T03:37:22;12.54;88.23
80676;SHT30;70041;46.088;18.268;2023-05-14T03:39:47;12.45;88.70
80676;SHT30;70041;46.088;18.268;2023-05-14T03:42:13;12.38;88.72
80676;SHT30;70041;46.088;18.268;2023-05-14T03:44:38;12.42;88.60
80676;SHT30;70041;46.088;18.268;2023-05-14T03:47:04;12.47;88.91
80676;SHT30;70041;46.088;18.268;2023-05-14T03:49:29;12.40;89.26
80676;SHT30;70041;46.088;18.268;2023-05-14T03:51:54;12.44;89.52
80676;SHT30;70041;46.088;18.268;2023-05-14T03:54:21;12.44;89.24
80676;SHT30;70041;46.088;18.268;2023-05-14T03:56:46;12.42;90.10
80676;SHT30;70041;46.088;18.268;2023-05-14T03:59:12;12.38;89.94
80676;SHT30;70041;46.088;18.268;2023-05-14T04:01:37;12.36;89.73
80676;SHT30;70041;46.088;18.268;2023-05-14T04:04:03;12.36;89.43
80676;SHT30;70041;46.088;18.268;2023-05-14T04:06:28;12.40;90.03
80676;SHT30;70041;46.088;18.268;2023-05-14T04:08:53;12.38;89.24
80676;SHT30;70041;46.088;18.268;2023-05-14T04:11:19;12.41;89.47
80676;SHT30;70041;46.088;18.268;2023-05-14T04:13:45;12.40;90.11
80676;SHT30;70041;46.088;18.268;2023-05-14T04:16:11;12.41;89.79
80676;SHT30;70041;46.088;18.268;2023-05-14T04:18:36;12.34;90.26
80676;SHT30;70041;46.088;18.268;2023-05-14T04:21:02;12.41;90.10
80676;SHT30;70041;46.088;18.268;2023-05-14T04:23:28;12.41;89.56
80676;SHT30;70041;46.088;18.268;2023-05-14T04:25:53;12.42;89.83
80676;SHT30;70041;46.088;18.268;2023-05-14T04:28:18;12.48;89.44
80676;SHT30;70041;46.088;18.268;2023-05-14T04:30:44;12.48;89.82
80676;SHT30;70041;46.088;18.268;2023-05-14T04:33:10;12.48;90.26
80676;SHT30;70041;46.088;18.268;2023-05-14T04:35:35;12.40;90.03
80676;SHT30;70041;46.088;18.268;2023-05-14T04:38:01;12.36;90.36
80676;SHT30;70041;46.088;18.268;2023-05-14T04:40:26;12.41;90.50
80676;SHT30;70041;46.088;18.268;2023-05-14T04:42:51;12.42;90.11
80676;SHT30;70041;46.088;18.268;2023-05-14T04:45:17;12.38;90.58
80676;SHT30;70041;46.088;18.268;2023-05-14T04:47:42;12.45;90.53
80676;SHT30;70041;46.088;18.268;2023-05-14T04:50:09;12.47;90.47
80676;SHT30;70041;46.088;18.268;2023-05-14T04:52:34;12.54;89.74
80676;SHT30;70041;46.088;18.268;2023-05-14T04:55:00;12.58;90.12
80676;SHT30;70041;46.088;18.268;2023-05-14T04:57:25;12.48;90.28
80676;SHT30;70041;46.088;18.268;2023-05-14T04:59:51;12.55;90.04
80676;SHT30;70041;46.088;18.268;2023-05-14T05:02:16;12.51;90.17
80676;SHT30;70041;46.088;18.268;2023-05-14T05:04:42;12.47;89.75
80676;SHT30;70041;46.088;18.268;2023-05-14T05:07:07;12.47;90.57
80676;SHT30;70041;46.088;18.268;2023-05-14T05:09:33;12.47;90.22
80676;SHT30;70041;46.088;18.268;2023-05-14T05:11:58;12.44;89.77
80676;SHT30;70041;46.088;18.268;2023-05-14T05:14:25;12.38;90.56
80676;SHT30;70041;46.088;18.268;2023-05-14T05:16:51;12.41;90.54
80676;SHT30;70041;46.088;18.268;2023-05-14T05:19:16;12.48;90.40
80676;SHT30;70041;46.088;18.268;2023-05-14T05:21:42;12.47;90.61
80676;SHT30;70041;46.088;18.268;2023-05-14T05:24:07;12.42;90.20
80676;SHT30;70041;46.088;18.268;2023-05-14T05:26:33;12.51;90.23
80676;SHT30;70041;46.088;18.268;2023-05-14T05:29:02;12.52;90.24
80676;SHT30;70041;46.088;18.268;2023-05-14T05:31:28;12.45;90.16
80676;SHT30;70041;46.088;18.268;2023-05-14T05:33:53;12.52;89.83
80676;SHT30;70041;46.088;18.268;2023-05-14T05:36:18;12.44;90.79
80676;SHT30;70041;46.088;18.268;2023-05-14T05:38:44;12.48;90.54
80676;SHT30;70041;46.088;18.268;2023-05-14T05:41:09;12.55;90.06
80676;SHT30;70041;46.088;18.268;2023-05-14T05:43:35;12.54;90.23
80676;SHT30;70041;46.088;18.268;2023-05-14T05:46:00;12.51;90.50
80676;SHT30;70041;46.088;18.268;2023-05-14T05:48:26;12.45;91.01
80676;SHT30;70041;46.088;18.268;2023-05-14T05:50:51;12.45;91.01
80676;SHT30;70041;46.088;18.268;2023-05-14T05:53:17;12.44;91.25
80676;SHT30;70041;46.088;18.268;2023-05-14T05:55:43;12.44;91.05
80676;SHT30;70041;46.088;18.268;2023-05-14T05:58:08;12.47;91.45
80676;SHT30;70041;46.088;18.268;2023-05-14T06:00:33;12.47;91.20
80676;SHT30;70041;46.088;18.268;2023-05-14T06:02:59;12.51;91.18
80676;SHT30;70041;46.088;18.268;2023-05-14T06:05:25;12.58;90.91
80676;SHT30;70041;46.088;18.268;2023-05-14T06:07:50;12.58;91.31
80676;SHT30;70041;46.088;18.268;2023-05-14T06:10:18;12.59;90.99
80676;SHT30;70041;46.088;18.268;2023-05-14T06:12:43;12.55;91.55
80676;SHT30;70041;46.088;18.268;2023-05-14T06:15:09;12.55;91.47
80676;SHT30;70041;46.088;18.268;2023-05-14T06:17:36;12.59;91.33
80676;SHT30;70041;46.088;18.268;2023-05-14T06:20:02;12.58;91.39
80676;SHT30;70041;46.088;18.268;2023-05-14T06:22:29;12.61;91.38
80676;SHT30;70041;46.088;18.268;2023-05-14T06:24:55;12.57;91.52
80676;SHT30;70041;46.088;18.268;2023-05-14T06:27:20;12.58;90.89
80676;SHT30;70041;46.088;18.268;2023-05-14T06:29:46;12.61;90.89
80676;SHT30;70041;46.088;18.268;2023-05-14T06:32:11;12.49;91.13
80676;SHT30;70041;46.088;18.268;2023-05-14T06:34:39;12.57;91.14
80676;SHT30;70041;46.088;18.268;2023-05-14T06:37:05;12.61;90.74
80676;SHT30;70041;46.088;18.268;2023-05-14T06:39:31;12.59;90.22
80676;SHT30;70041;46.088;18.268;2023-05-14T06:41:56;12.59;90.58
80676;SHT30;70041;46.088;18.268;2023-05-14T06:44:22;12.57;90.56
80676;SHT30;70041;46.088;18.268;2023-05-14T06:46:47;12.48;91.12
80676;SHT30;70041;46.088;18.268;2023-05-14T06:49:12;12.51;90.50
80676;SHT30;70041;46.088;18.268;2023-05-14T06:51:38;12.45;90.57
80676;SHT30;70041;46.088;18.268;2023-05-14T06:54:04;12.58;90.20
80676;SHT30;70041;46.088;18.268;2023-05-14T06:56:30;12.61;90.39
80676;SHT30;70041;46.088;18.268;2023-05-14T06:58:55;12.61;90.52
80676;SHT30;70041;46.088;18.268;2023-05-14T07:01:21;12.65;89.72
80676;SHT30;70041;46.088;18.268;2023-05-14T07:03:46;12.58;90.44
80676;SHT30;70041;46.088;18.268;2023-05-14T07:06:11;12.59;89.96
80676;SHT30;70041;46.088;18.268;2023-05-14T07:08:38;12.49;90.16
80676;SHT30;70041;46.088;18.268;2023-05-14T07:11:03;12.51;89.25
80676;SHT30;70041;46.088;18.268;2023-05-14T07:13:29;12.49;89.77
80676;SHT30;70041;46.088;18.268;2023-05-14T07:15:54;12.44;88.80
80676;SHT30;70041;46.088;18.268;2023-05-14T07:18:21;12.37;89.83
80676;SHT30;70041;46.088;18.268;2023-05-14T07:20:46;12.33;90.54
80676;SHT30;70041;46.088;18.268;2023-05-14T07:23:12;12.37;90.12
80676;SHT30;70041;46.088;18.268;2023-05-14T07:25:37;12.42;89.86
80676;SHT30;70041;46.088;18.268;2023-05-14T07:28:03;12.42;89.73
80676;SHT30;70041;46.088;18.268;2023-05-14T07:30:28;12.36;89.87
80676;SHT30;70041;46.088;18.268;2023-05-14T07:32:53;12.33;90.05
80676;SHT30;70041;46.088;18.268;2023-05-14T07:35:19;12.31;89.92
80676;SHT30;70041;46.088;18.268;2023-05-14T07:37:44;12.26;90.43
80676;SHT30;70041;46.088;18.268;2023-05-14T07:40:10;12.26;90.26
80676;SHT30;70041;46.088;18.268;2023-05-14T07:42:35;12.18;91.18
80676;SHT30;70041;46.088;18.268;2023-05-14T07:45:01;12.24;90.84
80676;SHT30;70041;46.088;18.268;2023-05-14T07:47:26;12.21;90.65
80676;SHT30;70041;46.088;18.268;2023-05-14T07:49:56;12.17;90.47
80676;SHT30;70041;46.088;18.268;2023-05-14T07:52:22;12.07;90.61
80676;SHT30;70041;46.088;18.268;2023-05-14T07:54:48;12.10;90.94
80676;SHT30;70041;46.088;18.268;2023-05-14T07:57:14;12.07;90.61
80676;SHT30;70041;46.088;18.268;2023-05-14T07:59:39;12.00;90.68
80676;SHT30;70041;46.088;18.268;2023-05-14T08:02:05;12.08;91.34
80676;SHT30;70041;46.088;18.268;2023-05-14T08:04:30;12.08;91.08
80676;SHT30;70041;46.088;18.268;2023-05-14T08:06:56;12.04;91.05
80676;SHT30;70041;46.088;18.268;2023-05-14T08:09:22;12.01;91.47
80676;SHT30;70041;46.088;18.268;2023-05-14T08:11:48;11.96;91.87
80676;SHT30;70041;46.088;18.268;2023-05-14T08:14:13;12.01;91.12
80676;SHT30;70041;46.088;18.268;2023-05-14T08:16:38;12.00;91.34
80676;SHT30;70041;46.088;18.268;2023-05-14T08:19:04;11.96;91.59
80676;SHT30;70041;46.088;18.268;2023-05-14T08:21:29;11.97;91.19
80676;SHT30;70041;46.088;18.268;2023-05-14T08:23:55;11.94;91.68
80676;SHT30;70041;46.088;18.268;2023-05-14T08:26:21;11.80;91.89
80676;SHT30;70041;46.088;18.268;2023-05-14T08:28:47;11.84;91.46
80676;SHT30;70041;46.088;18.268;2023-05-14T08:31:12;11.83;92.42
80676;SHT30;70041;46.088;18.268;2023-05-14T08:33:39;11.91;92.02
80676;SHT30;70041;46.088;18.268;2023-05-14T08:36:04;11.91;91.39
80676;SHT30;70041;46.088;18.268;2023-05-14T08:38:31;11.91;91.63
80676;SHT30;70041;46.088;18.268;2023-05-14T08:40:57;11.84;91.68
80676;SHT30;70041;46.088;18.268;2023-05-14T08:43:29;11.87;91.92
80676;SHT30;70041;46.088;18.268;2023-05-14T08:45:57;11.96;91.59
80676;SHT30;70041;46.088;18.268;2023-05-14T08:48:28;11.91;91.33
80676;SHT30;70041;46.088;18.268;2023-05-14T08:50:56;11.89;91.66
80676;SHT30;70041;46.088;18.268;2023-05-14T08:53:22;11.90;91.86
80676;SHT30;70041;46.088;18.268;2023-05-14T08:55:50;11.89;91.96
80676;SHT30;70041;46.088;18.268;2023-05-14T08:58:15;11.96;92.18
80676;SHT30;70041;46.088;18.268;2023-05-14T09:00:41;11.98;91.62
80676;SHT30;70041;46.088;18.268;2023-05-14T09:03:07;11.96;91.78
80676;SHT30;70041;46.088;18.268;2023-05-14T09:05:32;11.94;91.50
80676;SHT30;70041;46.088;18.268;2023-05-14T09:07:58;11.93;92.16
80676;SHT30;70041;46.088;18.268;2023-05-14T09:10:24;12.00;91.98
80676;SHT30;70041;46.088;18.268;2023-05-14T09:12:50;12.00;91.79
80676;SHT30;70041;46.088;18.268;2023-05-14T09:15:16;12.04;91.46
80676;SHT30;70041;46.088;18.268;2023-05-14T09:17:42;12.00;91.48
80676;SHT30;70041;46.088;18.268;2023-05-14T09:20:08;11.93;91.96
80676;SHT30;70041;46.088;18.268;2023-05-14T09:22:34;11.96;91.97
80676;SHT30;70041;46.088;18.268;2023-05-14T09:25:08;11.97;91.86
80676;SHT30;70041;46.088;18.268;2023-05-14T09:27:34;11.94;91.90
80676;SHT30;70041;46.088;18.268;2023-05-14T09:30:05;11.94;91.69
80676;SHT30;70041;46.088;18.268;2023-05-14T09:32:38;11.97;91.91
80676;SHT30;70041;46.088;18.268;2023-05-14T09:35:15;11.90;91.50
80676;SHT30;70041;46.088;18.268;2023-05-14T09:37:45;11.87;92.20
80676;SHT30;70041;46.088;18.268;2023-05-14T09:40:12;11.80;92.09
80676;SHT30;70041;46.088;18.268;2023-05-14T09:42:38;11.84;92.49
80676;SHT30;70041;46.088;18.268;2023-05-14T09:45:05;11.83;92.24
80676;SHT30;70041;46.088;18.268;2023-05-14T09:47:31;11.86;92.16
80676;SHT30;70041;46.088;18.268;2023-05-14T09:49:57;11.77;92.77
80676;SHT30;70041;46.088;18.268;2023-05-14T09:52:23;11.77;92.91
80676;SHT30;70041;46.088;18.268;2023-05-14T09:54:51;11.82;92.83
80676;SHT30;70041;46.088;18.268;2023-05-14T09:57:18;11.80;92.33
80676;SHT30;70041;46.088;18.268;2023-05-14T09:59:43;11.70;92.90
80676;SHT30;70041;46.088;18.268;2023-05-14T10:02:24;11.77;93.15
80676;SHT30;70041;46.088;18.268;2023-05-14T10:04:52;11.86;92.91
80676;SHT30;70041;46.088;18.268;2023-05-14T10:07:38;11.87;92.68
80676;SHT30;70041;46.088;18.268;2023-05-14T10:10:07;11.87;92.85
80676;SHT30;70041;46.088;18.268;2023-05-14T10:12:37;11.86;93.31
80676;SHT30;70041;46.088;18.268;2023-05-14T10:15:15;11.90;93.13
80676;SHT30;70041;46.088;18.268;2023-05-14T10:17:43;11.93;93.08
80676;SHT30;70041;46.088;18.268;2023-05-14T10:20:14;11.94;93.06
80676;SHT30;70041;46.088;18.268;2023-05-14T10:22:40;11.94;93.11
80676;SHT30;70041;46.088;18.268;2023-05-14T10:25:06;11.90;93.27
80676;SHT30;70041;46.088;18.268;2023-05-14T10:27:32;11.94;93.19
80676;SHT30;70041;46.088;18.268;2023-05-14T10:29:58;12.00;93.08
80676;SHT30;70041;46.088;18.268;2023-05-14T10:32:24;12.06;92.96
80676;SHT30;70041;46.088;18.268;2023-05-14T10:34:51;12.08;92.72
80676;SHT30;70041;46.088;18.268;2023-05-14T10:37:21;12.08;92.66
80676;SHT30;70041;46.088;18.268;2023-05-14T10:39:57;12.34;92.60
80676;SHT30;70041;46.088;18.268;2023-05-14T10:42:24;12.48;92.28
80676;SHT30;70041;46.088;18.268;2023-05-14T10:44:56;12.58;91.64
80676;SHT30;70041;46.088;18.268;2023-05-14T10:47:26;12.62;91.97
80676;SHT30;70041;46.088;18.268;2023-05-14T10:49:53;12.54;91.90
80676;SHT30;70041;46.088;18.268;2023-05-14T10:52:20;12.58;92.08
80676;SHT30;70041;46.088;18.268;2023-05-14T10:57:17;12.44;92.16
80676;SHT30;70041;46.088;18.268;2023-05-14T10:59:43;12.42;92.33
80676;SHT30;70041;46.088;18.268;2023-05-14T11:02:20;12.42;92.23
80676;SHT30;70041;46.088;18.268;2023-05-14T11:07:29;12.49;91.47
80676;SHT30;70041;46.088;18.268;2023-05-14T11:10:09;12.41;91.86
80676;SHT30;70041;46.088;18.268;2023-05-14T11:12:37;12.42;92.37
80676;SHT30;70041;46.088;18.268;2023-05-14T11:15:05;12.48;92.05
80676;SHT30;70041;46.088;18.268;2023-05-14T11:17:31;12.47;92.05
80676;SHT30;70041;46.088;18.268;2023-05-14T11:19:57;12.51;92.13
80676;SHT30;70041;46.088;18.268;2023-05-14T11:22:23;12.40;92.30
80676;SHT30;70041;46.088;18.268;2023-05-14T11:24:49;12.48;92.56
80676;SHT30;70041;46.088;18.268;2023-05-14T11:27:16;12.44;92.41
80676;SHT30;70041;46.088;18.268;2023-05-14T11:29:43;12.41;91.96
80676;SHT30;70041;46.088;18.268;2023-05-14T11:32:10;12.37;92.82
80676;SHT30;70041;46.088;18.268;2023-05-14T11:34:36;12.30;92.83
80676;SHT30;70041;46.088;18.268;2023-05-14T11:37:05;12.30;92.82
80676;SHT30;70041;46.088;18.268;2023-05-14T11:39:31;12.27;92.81
80676;SHT30;70041;46.088;18.268;2023-05-14T11:41:58;12.31;93.10
80676;SHT30;70041;46.088;18.268;2023-05-14T11:44:23;12.38;92.75
80676;SHT30;70041;46.088;18.268;2023-05-14T11:46:56;12.34;92.76
80676;SHT30;70041;46.088;18.268;2023-05-14T11:49:22;12.37;92.34
80676;SHT30;70041;46.088;18.268;2023-05-14T11:51:48;12.27;93.23
80676;SHT30;70041;46.088;18.268;2023-05-14T11:54:13;12.36;93.42
80676;SHT30;70041;46.088;18.268;2023-05-14T11:56:39;12.40;93.03
80676;SHT30;70041;46.088;18.268;2023-05-14T11:59:05;12.42;92.85
80676;SHT30;70041;46.088;18.268;2023-05-14T12:01:38;12.44;92.91
80676;SHT30;70041;46.088;18.268;2023-05-14T12:04:04;12.44;92.57
80676;SHT30;70041;46.088;18.268;2023-05-14T12:06:31;12.45;92.91
80676;SHT30;70041;46.088;18.268;2023-05-14T12:08:57;12.45;92.86
80676;SHT30;70041;46.088;18.268;2023-05-14T12:11:22;12.55;92.64
80676;SHT30;70041;46.088;18.268;2023-05-14T12:13:48;12.55;92.58
80676;SHT30;70041;46.088;18.268;2023-05-14T12:16:13;12.44;93.13
80676;SHT30;70041;46.088;18.268;2023-05-14T12:18:39;12.47;93.37
80676;SHT30;70041;46.088;18.268;2023-05-14T12:21:04;12.51;93.20
80676;SHT30;70041;46.088;18.268;2023-05-14T12:23:32;12.51;93.00
80676;SHT30;70041;46.088;18.268;2023-05-14T12:26:05;12.52;93.25
80676;SHT30;70041;46.088;18.268;2023-05-14T12:28:31;12.55;93.08
80676;SHT30;70041;46.088;18.268;2023-05-14T12:30:57;12.57;92.54
80676;SHT30;70041;46.088;18.268;2023-05-14T12:33:24;12.61;92.56
80676;SHT30;70041;46.088;18.268;2023-05-14T12:35:51;12.47;93.15
80676;SHT30;70041;46.088;18.268;2023-05-14T12:38:18;12.49;93.46
80676;SHT30;70041;46.088;18.268;2023-05-14T12:40:43;12.58;93.01
80676;SHT30;70041;46.088;18.268;2023-05-14T12:43:09;12.61;92.64
80676;SHT30;70041;46.088;18.268;2023-05-14T12:45:34;12.54;93.22
80676;SHT30;70041;46.088;18.268;2023-05-14T12:48:00;12.52;93.42
80676;SHT30;70041;46.088;18.268;2023-05-14T12:50:25;12.49;93.61
80676;SHT30;70041;46.088;18.268;2023-05-14T12:52:50;12.58;93.71
80676;SHT30;70041;46.088;18.268;2023-05-14T12:55:16;12.69;93.07
80676;SHT30;70041;46.088;18.268;2023-05-14T12:57:41;12.71;93.07
80676;SHT30;70041;46.088;18.268;2023-05-14T13:00:07;12.71;93.20
80676;SHT30;70041;46.088;18.268;2023-05-14T13:02:36;12.82;92.60
80676;SHT30;70041;46.088;18.268;2023-05-14T13:05:02;12.85;92.59
80676;SHT30;70041;46.088;18.268;2023-05-14T13:07:29;12.81;92.16
80676;SHT30;70041;46.088;18.268;2023-05-14T13:09:54;12.84;92.71
80676;SHT30;70041;46.088;18.268;2023-05-14T13:12:20;12.86;92.61
80676;SHT30;70041;46.088;18.268;2023-05-14T13:14:45;12.86;92.33
80676;SHT30;70041;46.088;18.268;2023-05-14T13:17:11;12.82;92.76
80676;SHT30;70041;46.088;18.268;2023-05-14T13:19:36;12.78;93.05
80676;SHT30;70041;46.088;18.268;2023-05-14T13:22:02;12.82;93.11
80676;SHT30;70041;46.088;18.268;2023-05-14T13:24:27;12.85;92.86
80676;SHT30;70041;46.088;18.268;2023-05-14T13:26:52;12.95;92.24
80676;SHT30;70041;46.088;18.268;2023-05-14T13:29:18;12.88;92.76
80676;SHT30;70041;46.088;18.268;2023-05-14T13:31:43;12.85;93.07
80676;SHT30;70041;46.088;18.268;2023-05-14T13:34:09;12.88;92.82
80676;SHT30;70041;46.088;18.268;2023-05-14T13:36:34;12.86;92.91
80676;SHT30;70041;46.088;18.268;2023-05-14T13:39:04;12.91;93.07
80676;SHT30;70041;46.088;18.268;2023-05-14T13:41:30;12.92;92.49
80676;SHT30;70041;46.088;18.268;2023-05-14T13:43:59;12.99;92.63
80676;SHT30;70041;46.088;18.268;2023-05-14T13:46:24;13.00;92.62
80676;SHT30;70041;46.088;18.268;2023-05-14T13:48:50;13.05;92.48
80676;SHT30;70041;46.088;18.268;2023-05-14T13:51:15;13.13;92.30
80676;SHT30;70041;46.088;18.268;2023-05-14T13:53:41;13.15;92.56
80676;SHT30;70041;46.088;18.268;2023-05-14T13:56:06;13.13;92.69
80676;SHT30;70041;46.088;18.268;2023-05-14T13:58:32;13.16;92.09
80676;SHT30;70041;46.088;18.268;2023-05-14T14:00:58;13.22;92.27
80676;SHT30;70041;46.088;18.268;2023-05-14T14:03:23;13.22;92.40
80676;SHT30;70041;46.088;18.268;2023-05-14T14:05:49;13.19;92.61
80676;SHT30;70041;46.088;18.268;2023-05-14T14:08:16;13.15;92.46
80676;SHT30;70041;46.088;18.268;2023-05-14T14:10:41;13.19;92.77
80676;SHT30;70041;46.088;18.268;2023-05-14T14:13:07;13.20;92.37
80676;SHT30;70041;46.088;18.268;2023-05-14T14:15:33;13.20;92.40
80676;SHT30;70041;46.088;18.268;2023-05-14T14:17:59;13.26;92.30
80676;SHT30;70041;46.088;18.268;2023-05-14T14:20:24;13.32;92.02
80676;SHT30;70041;46.088;18.268;2023-05-14T14:22:50;13.30;92.33
80676;SHT30;70041;46.088;18.268;2023-05-14T14:25:15;13.26;92.52
80676;SHT30;70041;46.088;18.268;2023-05-14T14:27:41;13.29;92.44
80676;SHT30;70041;46.088;18.268;2023-05-14T14:30:07;13.35;92.43
80676;SHT30;70041;46.088;18.268;2023-05-14T14:32:34;13.36;92.31
80676;SHT30;70041;46.088;18.268;2023-05-14T14:34:59;13.32;92.72
80676;SHT30;70041;46.088;18.268;2023-05-14T14:37:25;13.30;92.49
80676;SHT30;70041;46.088;18.268;2023-05-14T14:39:50;13.32;92.06
80676;SHT30;70041;46.088;18.268;2023-05-14T14:42:15;13.33;92.16
80676;SHT30;70041;46.088;18.268;2023-05-14T14:44:41;13.33;92.34
80676;SHT30;70041;46.088;18.268;2023-05-14T14:47:06;13.33;91.69
80676;SHT30;70041;46.088;18.268;2023-05-14T14:49:31;13.32;92.09
80676;SHT30;70041;46.088;18.268;2023-05-14T14:52:18;13.32;91.68
80676;SHT30;70041;46.088;18.268;2023-05-14T14:54:43;13.30;92.04
80676;SHT30;70041;46.088;18.268;2023-05-14T14:57:08;13.32;91.90
80676;SHT30;70041;46.088;18.268;2023-05-14T14:59:34;13.32;91.98
80676;SHT30;70041;46.088;18.268;2023-05-14T15:01:59;13.26;91.96
80676;SHT30;70041;46.088;18.268;2023-05-14T15:04:25;13.29;91.86
80676;SHT30;70041;46.088;18.268;2023-05-14T15:06:50;13.32;91.31
80676;SHT30;70041;46.088;18.268;2023-05-14T15:09:16;13.19;91.90
80676;SHT30;70041;46.088;18.268;2023-05-14T15:11:43;13.18;91.94
80676;SHT30;70041;46.088;18.268;2023-05-14T15:14:09;13.09;92.21
80676;SHT30;70041;46.088;18.268;2023-05-14T15:16:34;13.08;92.31
80676;SHT30;70041;46.088;18.268;2023-05-14T15:18:59;13.09;92.26
80676;SHT30;70041;46.088;18.268;2023-05-14T15:21:25;13.09;92.48
80676;SHT30;70041;46.088;18.268;2023-05-14T15:23:50;13.13;92.36